createdAt,value
2022-10-21T00:00:50.600Z,100538.97
2022-10-21T00:03:17.178Z,100540.81
2022-10-21T00:05:43.520Z,100541.81
2022-10-21T00:08:09.833Z,100548.38
2022-10-21T00:13:07.365Z,100534.56
2022-10-21T00:15:33.668Z,100530.41
2022-10-21T00:18:01.346Z,100528.31
2022-10-21T00:20:27.677Z,100532.16
2022-10-21T00:22:54.017Z,100540.19
2022-10-21T00:25:20.310Z,100540.19
2022-10-21T00:27:46.612Z,100542.03
2022-10-21T00:30:13.100Z,100537.50
2022-10-21T00:32:39.816Z,100534.00
2022-10-21T00:35:07.958Z,100530.50
2022-10-21T00:37:34.260Z,100527.00
2022-10-21T00:40:00.542Z,100529.03
2022-10-21T00:42:30.048Z,100530.03
2022-10-21T00:45:12.246Z,100520.38
2022-10-21T00:47:41.514Z,100519.75
2022-10-21T00:50:18.486Z,100520.59
2022-10-21T00:52:44.975Z,100519.09
2022-10-21T00:55:11.285Z,100523.63
2022-10-21T00:57:38.122Z,100508.13
2022-10-21T01:00:05.729Z,100509.31
2022-10-21T01:02:32.185Z,100505.22
2022-10-21T01:05:00.136Z,100504.09
2022-10-21T01:07:27.798Z,100508.97
2022-10-21T01:09:54.101Z,100504.00
2022-10-21T01:12:24.749Z,100498.00
2022-10-21T01:14:53.496Z,100503.34
2022-10-21T01:17:52.320Z,100497.53
2022-10-21T01:20:26.782Z,100490.75
2022-10-21T01:23:10.777Z,100488.63
2022-10-21T01:25:48.613Z,100485.31
2022-10-21T01:28:19.762Z,100483.47
2022-10-21T01:30:50.458Z,100476.47
2022-10-21T01:33:38.078Z,100479.13
2022-10-21T01:36:09.395Z,100471.13
2022-10-21T01:38:42.496Z,100460.81
2022-10-21T01:41:11.986Z,100459.19
2022-10-21T01:43:41.242Z,100458.38
2022-10-21T01:46:13.070Z,100454.22
2022-10-21T01:48:43.547Z,100440.88
2022-10-21T01:51:10.013Z,100437.56
2022-10-21T01:53:39.451Z,100437.75
2022-10-21T01:56:07.241Z,100430.91
2022-10-21T01:58:35.630Z,100432.59
2022-10-21T02:01:03.404Z,100435.44
2022-10-21T02:03:32.535Z,100437.91
2022-10-21T02:05:59.113Z,100439.56
2022-10-21T02:08:25.447Z,100426.81
2022-10-21T02:10:54.186Z,100420.34
2022-10-21T02:13:22.974Z,100422.84
2022-10-21T02:15:50.646Z,100415.00
2022-10-21T02:18:18.700Z,100417.84
2022-10-21T02:20:49.037Z,100408.03
2022-10-21T02:23:17.038Z,100411.69
2022-10-21T02:25:44.775Z,100412.34
2022-10-21T02:28:11.550Z,100401.03
2022-10-21T02:30:41.122Z,100413.19
2022-10-21T02:33:10.040Z,100399.00
2022-10-21T02:35:39.603Z,100409.31
2022-10-21T02:38:11.934Z,100409.50
2022-10-21T02:40:41.848Z,100408.50
2022-10-21T02:43:10.425Z,100410.16
2022-10-21T02:45:38.387Z,100410.16
2022-10-21T02:48:04.720Z,100409.31
2022-10-21T02:50:31.242Z,100402.34
2022-10-21T02:52:57.511Z,100398.19
2022-10-21T02:55:25.208Z,100394.69
2022-10-21T02:57:51.484Z,100400.75
2022-10-21T03:00:17.920Z,100399.91
2022-10-21T03:02:44.194Z,100398.06
2022-10-21T03:05:10.517Z,100398.06
2022-10-21T03:07:37.027Z,100398.59
2022-10-21T03:10:03.831Z,100402.28
2022-10-21T03:12:31.477Z,100405.34
2022-10-21T03:14:57.787Z,100407.16
2022-10-21T03:17:25.315Z,100416.19
2022-10-21T03:19:51.890Z,100414.53
2022-10-21T03:22:18.203Z,100413.88
2022-10-21T03:24:44.490Z,100409.91
2022-10-21T03:27:10.834Z,100405.78
2022-10-21T03:29:38.488Z,100400.63
2022-10-21T03:32:04.974Z,100401.81
2022-10-21T03:34:31.281Z,100414.31
2022-10-21T03:36:57.551Z,100408.16
2022-10-21T03:39:23.865Z,100403.66
2022-10-21T03:41:50.336Z,100403.66
2022-10-21T03:44:16.618Z,100402.00
2022-10-21T03:46:44.249Z,100395.00
2022-10-21T03:49:18.432Z,100387.19
2022-10-21T03:51:47.576Z,100389.00
2022-10-21T03:54:13.859Z,100374.03
2022-10-21T03:56:40.165Z,100377.53
2022-10-21T03:59:06.453Z,100373.41
2022-10-21T04:01:32.920Z,100375.25
2022-10-21T04:04:00.574Z,100384.25
2022-10-21T04:06:26.856Z,100391.22
2022-10-21T04:08:53.193Z,100383.41
2022-10-21T04:11:19.570Z,100373.59
2022-10-21T04:13:45.879Z,100390.41
2022-10-21T04:16:14.335Z,100383.41
2022-10-21T04:18:40.844Z,100379.09
2022-10-21T04:21:08.581Z,100387.09
2022-10-21T04:23:34.886Z,100389.75
2022-10-21T04:26:01.156Z,100387.91
2022-10-21T04:28:27.446Z,100387.09
2022-10-21T04:30:53.745Z,100379.91
2022-10-21T04:33:20.029Z,100384.41
2022-10-21T04:35:46.358Z,100395.72
2022-10-21T04:38:13.997Z,100387.91
2022-10-21T04:40:40.457Z,100388.75
2022-10-21T04:43:06.766Z,100397.56
2022-10-21T04:45:33.088Z,100391.59
2022-10-21T04:47:59.369Z,100407.41
2022-10-21T04:50:25.723Z,100396.91
2022-10-21T04:52:52.033Z,100393.44
2022-10-21T04:55:19.673Z,100398.75
2022-10-21T04:57:45.989Z,100399.75
2022-10-21T05:00:12.738Z,100390.28
2022-10-21T05:02:39.232Z,100391.28
2022-10-21T05:05:06.290Z,100386.97
2022-10-21T05:07:32.568Z,100383.50
2022-10-21T05:09:58.858Z,100387.53
2022-10-21T05:12:26.519Z,100378.03
2022-10-21T05:14:52.838Z,100371.41
2022-10-21T05:17:19.113Z,100362.78
2022-10-21T05:19:45.412Z,100357.63
2022-10-21T05:22:11.723Z,100353.50
2022-10-21T05:24:38.017Z,100347.50
2022-10-21T05:27:04.320Z,100338.88
2022-10-21T05:29:31.927Z,100348.06
2022-10-21T05:31:58.224Z,100351.75
2022-10-21T05:34:24.534Z,100337.22
2022-10-21T05:36:50.813Z,100351.34
2022-10-21T05:39:17.113Z,100342.38
2022-10-21T05:41:45.561Z,100343.84
2022-10-21T05:44:14.257Z,100340.16
2022-10-21T05:46:41.874Z,100333.66
2022-10-21T05:49:08.252Z,100328.97
2022-10-21T05:51:34.560Z,100322.00
2022-10-21T05:54:00.868Z,100332.66
2022-10-21T05:56:27.157Z,100335.97
2022-10-21T05:58:53.425Z,100342.75
2022-10-21T06:01:19.841Z,100332.94
2022-10-21T06:03:47.583Z,100334.59
2022-10-21T06:06:13.864Z,100335.41
2022-10-21T06:08:40.385Z,100331.75
2022-10-21T06:11:08.213Z,100328.91
2022-10-21T06:13:35.221Z,100329.56
2022-10-21T06:16:01.745Z,100336.72
2022-10-21T06:18:28.155Z,100330.38
2022-10-21T06:20:55.846Z,100331.22
2022-10-21T06:23:22.222Z,100343.53
2022-10-21T06:25:54.821Z,100340.88
2022-10-21T06:28:21.137Z,100344.88
2022-10-21T06:30:47.447Z,100344.88
2022-10-21T06:33:13.730Z,100349.38
2022-10-21T06:35:40.033Z,100349.88
2022-10-21T06:38:07.651Z,100353.16
2022-10-21T06:40:33.965Z,100351.13
2022-10-21T06:43:00.254Z,100361.44
2022-10-21T06:45:26.540Z,100364.75
2022-10-21T06:47:52.834Z,100368.91
2022-10-21T06:50:19.157Z,100370.53
2022-10-21T06:52:45.447Z,100368.06
2022-10-21T06:55:13.059Z,100371.75
2022-10-21T06:57:39.484Z,100371.09
2022-10-21T07:00:07.008Z,100378.75
2022-10-21T07:02:33.282Z,100399.22
2022-10-21T07:04:59.585Z,100410.50
2022-10-21T07:07:26.042Z,100406.66
2022-10-21T07:09:52.366Z,100403.00
2022-10-21T07:12:19.990Z,100403.66
2022-10-21T07:14:46.287Z,100394.81
2022-10-21T07:17:12.573Z,100399.78
2022-10-21T07:19:38.883Z,100403.72
2022-10-21T07:22:05.167Z,100403.19
2022-10-21T07:24:31.451Z,100401.84
2022-10-21T07:26:57.760Z,100391.44
2022-10-21T07:29:25.359Z,100396.41
2022-10-21T07:31:51.707Z,100395.03
2022-10-21T07:34:17.971Z,100392.84
2022-10-21T07:36:45.427Z,100379.16
2022-10-21T07:39:13.659Z,100382.47
2022-10-21T07:41:40.665Z,100382.72
2022-10-21T07:44:07.891Z,100386.69
2022-10-21T07:46:37.043Z,100400.28
2022-10-21T07:49:03.345Z,100396.06
2022-10-21T07:51:31.329Z,100397.16
2022-10-21T07:53:58.778Z,100399.47
2022-10-21T07:56:26.154Z,100402.41
2022-10-21T07:58:52.956Z,100409.84
2022-10-21T08:01:19.513Z,100419.31
2022-10-21T08:03:47.372Z,100420.63
2022-10-21T08:06:15.328Z,100417.56
2022-10-21T08:08:41.776Z,100413.69
2022-10-21T08:11:08.744Z,100424.84
2022-10-21T08:13:35.481Z,100415.63
2022-10-21T08:16:02.019Z,100416.06
2022-10-21T08:18:29.186Z,100408.53
2022-10-21T08:20:56.825Z,100413.50
2022-10-21T08:23:23.445Z,100420.28
2022-10-21T08:25:50.654Z,100427.28
2022-10-21T08:28:17.415Z,100431.59
2022-10-21T08:30:44.401Z,100437.78
2022-10-21T08:33:10.715Z,100435.94
2022-10-21T08:35:36.996Z,100432.44
2022-10-21T08:38:04.662Z,100440.25
2022-10-21T08:40:34.184Z,100438.41
2022-10-21T08:43:06.380Z,100433.72
2022-10-21T08:45:37.980Z,100434.38
2022-10-21T08:48:06.048Z,100430.47
2022-10-21T08:50:36.174Z,100416.94
2022-10-21T08:53:05.901Z,100421.91
2022-10-21T08:55:35.254Z,100435.91
2022-10-21T08:58:02.221Z,100460.59
2022-10-21T09:00:30.942Z,100454.84
2022-10-21T09:03:14.226Z,100444.81
2022-10-21T09:05:56.038Z,100432.56
2022-10-21T09:08:26.492Z,100453.53
2022-10-21T09:10:59.846Z,100459.97
2022-10-21T09:13:34.985Z,100461.25
2022-10-21T09:16:06.443Z,100459.69
2022-10-21T09:18:41.737Z,100461.81
2022-10-21T09:21:13.995Z,100460.84
2022-10-21T09:23:43.649Z,100467.72
2022-10-21T09:26:18.185Z,100472.31
2022-10-21T09:28:45.617Z,100469.69
2022-10-21T09:31:15.317Z,100480.25
2022-10-21T09:33:43.965Z,100488.53
2022-10-21T09:36:13.109Z,100489.78
2022-10-21T09:38:42.092Z,100486.34
2022-10-21T09:41:13.720Z,100488.66
2022-10-21T09:43:41.361Z,100476.31
2022-10-21T09:46:11.553Z,100482.75
2022-10-21T09:48:54.016Z,100480.50
2022-10-21T09:51:28.732Z,100490.44
2022-10-21T09:53:57.146Z,100493.34
2022-10-21T09:56:25.334Z,100500.16
2022-10-21T09:59:07.326Z,100492.78
2022-10-21T10:01:35.183Z,100499.59
2022-10-21T10:04:09.443Z,100508.03
2022-10-21T10:06:36.871Z,100505.81
2022-10-21T10:09:16.782Z,100507.09
2022-10-21T10:11:53.520Z,100499.47
2022-10-21T10:14:32.230Z,100500.75
2022-10-21T10:17:18.532Z,100503.06
2022-10-21T10:20:06.015Z,100511.50
2022-10-21T10:22:34.552Z,100502.25
2022-10-21T10:25:07.093Z,100510.56
2022-10-21T10:27:33.655Z,100512.63
2022-10-21T10:30:00.508Z,100511.22
2022-10-21T10:32:31.029Z,100511.22
2022-10-21T10:34:58.853Z,100512.72
2022-10-21T10:37:27.170Z,100515.63
2022-10-21T10:39:56.088Z,100514.84
2022-10-21T10:42:24.593Z,100507.03
2022-10-21T10:44:52.643Z,100505.63
2022-10-21T10:47:20.354Z,100509.53
2022-10-21T10:49:46.990Z,100505.44
2022-10-21T10:52:17.813Z,100500.50
2022-10-21T10:54:44.180Z,100496.38
2022-10-21T10:57:13.698Z,100506.72
2022-10-21T10:59:42.087Z,100502.59
2022-10-21T11:02:15.835Z,100500.34
2022-10-21T11:04:47.188Z,100491.50
2022-10-21T11:07:17.692Z,100489.84
2022-10-21T11:09:44.507Z,100487.19
2022-10-21T11:12:18.829Z,100480.84
2022-10-21T11:14:48.137Z,100468.25
2022-10-21T11:17:16.359Z,100472.81
2022-10-21T11:19:45.353Z,100474.47
2022-10-21T11:22:13.108Z,100472.78
2022-10-21T11:24:48.784Z,100467.66
2022-10-21T11:27:20.786Z,100464.34
2022-10-21T11:29:51.745Z,100451.13
2022-10-21T11:32:23.223Z,100454.84
2022-10-21T11:34:53.142Z,100466.81
2022-10-21T11:37:24.431Z,100469.31
2022-10-21T11:39:55.154Z,100460.00
2022-10-21T11:42:26.944Z,100464.75
2022-10-21T11:45:00.060Z,100456.91
2022-10-21T11:47:32.170Z,100450.88
2022-10-21T11:50:03.053Z,100437.88
2022-10-21T11:52:34.656Z,100447.59
2022-10-21T11:55:12.416Z,100445.53
2022-10-21T11:57:46.429Z,100446.13
2022-10-21T12:00:15.270Z,100452.56
2022-10-21T12:02:43.057Z,100468.22
2022-10-21T12:05:15.053Z,100459.97
2022-10-21T12:07:57.383Z,100471.31
2022-10-21T12:10:28.116Z,100488.44
2022-10-21T12:12:58.918Z,100496.50
2022-10-21T12:15:27.086Z,100474.56
2022-10-21T12:17:54.018Z,100457.22
2022-10-21T12:20:23.958Z,100473.09
2022-10-21T12:22:53.277Z,100474.13
2022-10-21T12:25:24.291Z,100473.25
2022-10-21T12:27:54.007Z,100484.22
2022-10-21T12:30:27.236Z,100480.25
2022-10-21T12:33:05.467Z,100472.97
2022-10-21T12:38:20.612Z,100466.91
2022-10-21T12:40:47.265Z,100468.56
2022-10-21T12:43:17.357Z,100472.53
2022-10-21T12:45:46.068Z,100471.09
2022-10-21T12:48:28.004Z,100461.38
2022-10-21T12:50:57.050Z,100465.72
2022-10-21T12:53:27.874Z,100465.72
2022-10-21T12:55:55.646Z,100461.53
2022-10-21T12:58:33.096Z,100469.19
2022-10-21T13:01:01.205Z,100471.88
2022-10-21T13:03:45.257Z,100470.63
2022-10-21T13:06:12.277Z,100469.44
2022-10-21T13:08:40.235Z,100487.22
2022-10-21T13:11:19.477Z,100476.72
2022-10-21T13:13:46.308Z,100474.50
2022-10-21T13:16:34.455Z,100479.66
2022-10-21T13:19:01.391Z,100479.72
2022-10-21T13:21:36.181Z,100473.34
2022-10-21T13:24:20.470Z,100470.66
2022-10-21T13:26:48.563Z,100479.50
2022-10-21T13:29:41.872Z,100470.81
2022-10-21T13:32:20.784Z,100473.91
2022-10-21T13:34:55.036Z,100476.56
2022-10-21T13:37:24.194Z,100470.34
2022-10-21T13:39:51.895Z,100470.94
2022-10-21T13:42:20.677Z,100465.19
2022-10-21T13:44:51.211Z,100464.97
2022-10-21T13:47:19.377Z,100469.75
2022-10-21T13:49:49.828Z,100458.16
2022-10-21T13:52:16.291Z,100462.72
2022-10-21T13:57:08.813Z,100462.50
2022-10-21T13:59:35.123Z,100471.19
2022-10-21T14:02:01.746Z,100469.91
2022-10-21T14:04:30.211Z,100462.88
2022-10-21T14:06:57.536Z,100471.56
2022-10-21T14:09:25.481Z,100464.69
2022-10-21T14:11:52.897Z,100463.84
2022-10-21T14:14:22.331Z,100469.44
2022-10-21T14:16:49.862Z,100458.47
2022-10-21T14:19:18.259Z,100465.34
2022-10-21T14:21:47.713Z,100456.47
2022-10-21T14:24:26.588Z,100456.88
2022-10-21T14:26:53.246Z,100459.56
2022-10-21T14:29:20.213Z,100460.81
2022-10-21T14:31:46.768Z,100462.88
2022-10-21T14:34:21.071Z,100464.97
2022-10-21T14:37:00.682Z,100470.13
2022-10-21T14:39:26.980Z,100464.75
2022-10-21T14:41:53.463Z,100474.91
2022-10-21T14:44:21.980Z,100474.09
2022-10-21T14:46:49.591Z,100471.34
2022-10-21T14:49:20.421Z,100482.75
2022-10-21T14:51:46.910Z,100491.75
2022-10-21T14:54:24.313Z,100495.19
2022-10-21T14:56:50.685Z,100485.56
2022-10-21T14:59:20.313Z,100493.38
2022-10-21T15:01:46.665Z,100500.28
2022-10-21T15:04:27.835Z,100499.53
2022-10-21T15:07:00.129Z,100505.84
2022-10-21T15:09:27.748Z,100502.38
2022-10-21T15:11:54.100Z,100502.22
2022-10-21T15:14:29.907Z,100491.44
2022-10-21T15:16:57.331Z,100487.84
2022-10-21T15:19:25.126Z,100481.25
2022-10-21T15:21:53.728Z,100478.00
2022-10-21T15:24:23.081Z,100474.59
2022-10-21T15:26:52.257Z,100487.88
2022-10-21T15:29:23.365Z,100476.69
2022-10-21T15:31:49.649Z,100482.38
2022-10-21T15:34:16.062Z,100472.75
2022-10-21T15:36:42.434Z,100475.13
2022-10-21T15:39:09.430Z,100481.00
2022-10-21T15:41:36.386Z,100476.53
2022-10-21T15:44:14.592Z,100475.53
2022-10-21T15:46:40.913Z,100475.38
2022-10-21T15:49:13.914Z,100481.19
2022-10-21T15:51:40.228Z,100474.41
2022-10-21T15:54:06.549Z,100477.50
2022-10-21T15:56:32.845Z,100476.88
2022-10-21T15:58:59.139Z,100474.22
2022-10-21T16:01:27.535Z,100467.41
2022-10-21T16:03:53.868Z,100466.59
2022-10-21T16:06:21.504Z,100473.00
2022-10-21T16:08:48.474Z,100476.72
2022-10-21T16:11:21.706Z,100467.03
2022-10-21T16:13:56.255Z,100476.94
2022-10-21T16:16:23.584Z,100465.38
2022-10-21T16:18:52.782Z,100471.78
2022-10-21T16:21:19.768Z,100477.94
2022-10-21T16:23:46.198Z,100479.81
2022-10-21T16:26:15.905Z,100475.41
2022-10-21T16:28:42.258Z,100492.31
2022-10-21T16:31:09.364Z,100496.03
2022-10-21T16:33:35.699Z,100494.34
2022-10-21T16:36:09.105Z,100496.00
2022-10-21T16:38:35.383Z,100493.06
2022-10-21T16:41:01.659Z,100486.88
2022-10-21T16:43:27.941Z,100485.81
2022-10-21T16:45:54.292Z,100491.97
2022-10-21T16:48:20.600Z,100492.56
2022-10-21T16:50:46.957Z,100499.56
2022-10-21T16:53:15.538Z,100502.81
2022-10-21T16:55:41.870Z,100505.09
2022-10-21T16:58:08.304Z,100503.63
2022-10-21T17:00:35.128Z,100516.78
2022-10-21T17:03:01.508Z,100511.03
2022-10-21T17:05:27.876Z,100519.25
2022-10-21T17:07:54.306Z,100517.97
2022-10-21T17:10:21.994Z,100516.72
2022-10-21T17:12:48.290Z,100528.03
2022-10-21T17:15:15.165Z,100523.03
2022-10-21T17:17:41.914Z,100528.81
2022-10-21T17:20:09.130Z,100524.84
2022-10-21T17:22:35.443Z,100521.72
2022-10-21T17:25:01.717Z,100534.47
2022-10-21T17:27:29.370Z,100529.31
2022-10-21T17:29:55.655Z,100530.53
2022-10-21T17:32:22.005Z,100542.47
2022-10-21T17:34:48.334Z,100534.63
2022-10-21T17:37:14.610Z,100548.19
2022-10-21T17:39:40.927Z,100547.97
2022-10-21T17:42:07.527Z,100551.00
2022-10-21T17:44:35.237Z,100552.22
2022-10-21T17:47:01.559Z,100555.31
2022-10-21T17:49:27.871Z,100557.16
2022-10-21T17:51:54.159Z,100553.84
2022-10-21T17:54:24.116Z,100556.69
2022-10-21T17:56:54.227Z,100558.72
2022-10-21T17:59:20.545Z,100557.91
2022-10-21T18:01:48.207Z,100566.13
2022-10-21T18:04:14.516Z,100562.63
2022-10-21T18:06:40.782Z,100563.63
2022-10-21T18:09:07.755Z,100563.25
2022-10-21T18:11:34.244Z,100574.78
2022-10-21T18:14:00.517Z,100571.47
2022-10-21T18:16:26.800Z,100570.66
2022-10-21T18:18:57.238Z,100574.97
2022-10-21T18:21:26.460Z,100573.13
2022-10-21T18:23:53.556Z,100574.16
2022-10-21T18:26:21.180Z,100576.81
2022-10-21T18:28:48.723Z,100583.84
2022-10-21T18:31:15.024Z,100590.84
2022-10-21T18:33:41.350Z,100594.53
2022-10-21T18:36:09.982Z,100592.69
2022-10-21T18:38:36.427Z,100597.22
2022-10-21T18:41:18.975Z,100593.53
2022-10-21T18:43:46.723Z,100596.66
2022-10-21T18:46:13.149Z,100590.88
2022-10-21T18:48:39.478Z,100595.22
2022-10-21T18:51:05.967Z,100604.09
2022-10-21T18:53:34.936Z,100594.22
2022-10-21T18:56:02.714Z,100594.03
2022-10-21T18:58:29.699Z,100593.19
2022-10-21T19:00:56.037Z,100589.88
2022-10-21T19:03:22.428Z,100585.75
2022-10-21T19:05:48.749Z,100586.78
2022-10-21T19:08:15.029Z,100582.25
2022-10-21T19:10:42.668Z,100577.66
2022-10-21T19:13:08.962Z,100587.09
2022-10-21T19:15:35.484Z,100581.09
2022-10-21T19:18:02.139Z,100585.00
2022-10-21T19:20:29.502Z,100585.38
2022-10-21T19:22:55.972Z,100581.25
2022-10-21T19:25:22.317Z,100583.28
2022-10-21T19:27:49.941Z,100578.31
2022-10-21T19:30:16.287Z,100584.66
2022-10-21T19:32:42.600Z,100582.38
2022-10-21T19:35:09.067Z,100585.63
2022-10-21T19:37:35.332Z,100582.50
2022-10-21T19:40:01.639Z,100584.72
2022-10-21T19:42:27.929Z,100585.94
2022-10-21T19:44:55.606Z,100590.66
2022-10-21T19:47:21.909Z,100586.03
2022-10-21T19:49:48.202Z,100581.28
2022-10-21T19:52:14.511Z,100587.81
2022-10-21T19:54:40.804Z,100588.31
2022-10-21T19:57:07.104Z,100585.34
2022-10-21T19:59:33.371Z,100590.28
2022-10-21T20:02:00.993Z,100604.00
2022-10-21T20:04:27.276Z,100608.00
2022-10-21T20:06:53.765Z,100603.06
2022-10-21T20:09:20.084Z,100599.94
2022-10-21T20:11:46.373Z,100608.13
2022-10-21T20:14:12.996Z,100605.81
2022-10-21T20:16:40.569Z,100598.84
2022-10-21T20:19:08.220Z,100600.84
2022-10-21T20:21:35.545Z,100608.88
2022-10-21T20:24:02.025Z,100614.75
2022-10-21T20:26:28.437Z,100613.47
2022-10-21T20:28:55.183Z,100620.84
2022-10-21T20:31:21.477Z,100626.56
2022-10-21T20:33:48.808Z,100634.75
2022-10-21T20:36:17.415Z,100633.44
2022-10-21T20:38:44.033Z,100636.94
2022-10-21T20:41:11.614Z,100639.63
2022-10-21T20:43:38.539Z,100635.09
2022-10-21T20:46:06.425Z,100643.31
2022-10-21T20:48:33.358Z,100639.00
2022-10-21T20:51:02.723Z,100634.50
2022-10-21T20:53:31.283Z,100638.34
2022-10-21T20:55:57.939Z,100648.03
2022-10-21T20:58:24.245Z,100642.03
2022-10-21T21:00:50.598Z,100645.72
2022-10-21T21:03:16.991Z,100641.38
2022-10-21T21:05:43.282Z,100645.22
2022-10-21T21:08:09.641Z,100639.06
2022-10-21T21:10:37.339Z,100651.59
2022-10-21T21:13:03.692Z,100649.31
2022-10-21T21:15:29.983Z,100645.78
2022-10-21T21:17:56.269Z,100654.16
2022-10-21T21:20:22.548Z,100642.81
2022-10-21T21:22:48.905Z,100643.47
2022-10-21T21:25:15.227Z,100646.97
2022-10-21T21:27:42.885Z,100645.97
2022-10-21T21:30:09.486Z,100649.47
2022-10-21T21:32:35.774Z,100658.50
2022-10-21T21:35:05.109Z,100654.16
2022-10-21T21:37:32.499Z,100646.34
2022-10-21T21:39:58.780Z,100643.84
2022-10-21T21:42:25.159Z,100648.53
2022-10-21T21:44:52.739Z,100645.03
2022-10-21T21:47:19.029Z,100644.22
2022-10-21T21:49:45.280Z,100641.56
2022-10-21T21:52:11.627Z,100639.91
2022-10-21T21:54:37.972Z,100634.06
2022-10-21T21:59:50.560Z,100634.44
2022-10-21T22:02:18.187Z,100637.44
2022-10-21T22:04:44.490Z,100630.84
2022-10-21T22:07:10.782Z,100636.34
2022-10-21T22:09:37.262Z,100632.84
2022-10-21T22:12:03.789Z,100629.53
2022-10-21T22:14:30.087Z,100629.34
2022-10-21T22:16:56.395Z,100625.50
2022-10-21T22:19:24.000Z,100626.34
2022-10-21T22:21:50.287Z,100628.81
2022-10-21T22:24:16.581Z,100635.00
2022-10-21T22:26:42.852Z,100629.00
2022-10-21T22:29:09.144Z,100631.66
2022-10-21T22:31:35.417Z,100635.34
2022-10-21T22:34:02.151Z,100633.03
2022-10-21T22:36:30.263Z,100633.38
2022-10-21T22:38:56.812Z,100626.59
2022-10-21T22:41:23.188Z,100630.91
2022-10-21T22:43:49.451Z,100615.91
2022-10-21T22:49:02.410Z,100616.63
2022-10-21T22:51:30.048Z,100609.16
2022-10-21T22:53:56.635Z,100622.22
2022-10-21T22:56:23.930Z,100613.56
2022-10-21T22:58:50.249Z,100609.78
2022-10-21T23:01:16.568Z,100593.94
2022-10-21T23:03:42.904Z,100597.63
2022-10-21T23:06:09.199Z,100599.28
2022-10-21T23:08:36.903Z,100594.78
2022-10-21T23:11:03.408Z,100597.44
2022-10-21T23:13:29.696Z,100601.78
2022-10-21T23:15:55.986Z,100597.78
2022-10-21T23:18:22.289Z,100596.97
2022-10-21T23:20:48.571Z,100608.63
2022-10-21T23:23:14.879Z,100612.13
2022-10-21T23:25:42.531Z,100621.81
2022-10-21T23:28:08.845Z,100621.16
2022-10-21T23:30:35.238Z,100624.81
2022-10-21T23:33:01.526Z,100626.03
2022-10-21T23:35:27.796Z,100629.03
2022-10-21T23:37:54.099Z,100634.06
2022-10-21T23:40:20.407Z,100634.59
2022-10-21T23:42:48.067Z,100642.09
2022-10-21T23:45:14.368Z,100647.59
2022-10-21T23:47:40.796Z,100643.09
2022-10-21T23:50:08.622Z,100651.94
2022-10-21T23:52:35.460Z,100651.75
2022-10-21T23:55:01.790Z,100658.75
2022-10-21T23:57:28.235Z,100655.09
2022-10-21T23:59:55.905Z,100653.25
